Time;durP1;ratioP1;P1;durP2;ratioP2;P2;SDS_P1;SDS_P2;PMS_P1;PMS_P2;Temp;Humidity;BMP_temperature;BMP_pressure;BME280_temperature;BME280_humidity;BME280_pressure;Samples;Min_cycle;Max_cycle;Signal;HPM_P1;HPM_P2
2021/01/15 00:02:02;;;;;;;1.73;1.50;;;20.00;29.30;;;;;;8364013;28;20048;-56
2021/01/15 00:06:06;;;;;;;2.50;1.40;;;20.00;29.30;;;;;;8359587;28;20048;-56
2021/01/15 00:10:08;;;;;;;1.50;1.27;;;20.00;29.30;;;;;;8341400;28;20128;-56
2021/01/15 00:14:09;;;;;;;2.35;1.95;;;20.00;29.40;;;;;;8326600;28;20038;-56
2021/01/15 00:18:09;;;;;;;1.75;1.50;;;20.00;29.40;;;;;;8330692;28;20025;-56
2021/01/15 00:22:11;;;;;;;1.60;1.50;;;19.90;29.40;;;;;;8355375;28;20070;-57
2021/01/15 00:26:19;;;;;;;1.70;1.20;;;20.00;29.40;;;;;;8358985;28;20048;-56
2021/01/15 00:30:20;;;;;;;1.60;1.50;;;20.00;29.30;;;;;;8359108;28;20567;-56
2021/01/15 00:34:20;;;;;;;1.75;1.33;;;19.90;29.30;;;;;;8359184;28;20102;-57
2021/01/15 00:38:21;;;;;;;2.17;1.60;;;19.90;29.30;;;;;;8396078;28;20489;-56
2021/01/15 00:42:21;;;;;;;2.40;1.70;;;19.90;29.40;;;;;;8391668;28;20024;-56
2021/01/15 00:46:31;;;;;;;1.40;1.27;;;19.90;29.40;;;;;;8383097;28;20401;-56
2021/01/15 00:50:31;;;;;;;3.70;1.80;;;19.90;29.40;;;;;;8351878;28;20061;-56
2021/01/15 00:54:32;;;;;;;2.13;1.53;;;19.90;29.50;;;;;;8329546;28;20033;-57
2021/01/15 00:58:33;;;;;;;1.45;1.27;;;19.90;29.40;;;;;;8331809;28;20044;-57
2021/01/15 01:02:35;;;;;;;1.40;1.30;;;19.80;29.40;;;;;;8358713;28;20079;-57
2021/01/15 01:06:35;;;;;;;2.35;1.30;;;19.80;29.40;;;;;;8356473;28;20048;-56
2021/01/15 01:10:37;;;;;;;1.67;1.30;;;19.80;29.40;;;;;;8333558;28;20395;-57
2021/01/15 01:14:38;;;;;;;1.52;1.20;;;19.80;29.50;;;;;;8361543;28;20119;-57
2021/01/15 01:18:38;;;;;;;1.83;1.43;;;19.80;29.40;;;;;;8356470;28;20036;-56
2021/01/15 01:22:39;;;;;;;1.33;1.23;;;19.80;29.50;;;;;;8357602;28;20394;-57
2021/01/15 01:26:39;;;;;;;1.57;1.17;;;19.80;29.50;;;;;;8344866;28;20048;-57
2021/01/15 01:30:41;;;;;;;2.20;1.57;;;19.70;29.50;;;;;;8361440;28;20056;-57
2021/01/15 01:34:41;;;;;;;1.95;1.30;;;19.70;29.50;;;;;;8390971;28;20537;-57
2021/01/15 01:38:42;;;;;;;1.50;1.40;;;19.70;29.50;;;;;;8372745;28;20029;-57
2021/01/15 01:42:42;;;;;;;1.47;1.37;;;19.70;29.50;;;;;;8355832;28;20360;-57
2021/01/15 01:46:43;;;;;;;2.17;1.43;;;19.70;29.50;;;;;;8361937;28;20045;-57
2021/01/15 01:50:49;;;;;;;2.43;1.50;;;19.70;29.50;;;;;;8357020;28;20375;-57
2021/01/15 01:54:51;;;;;;;1.58;1.25;;;19.70;29.50;;;;;;8355216;28;20045;-57
2021/01/15 01:58:52;;;;;;;1.20;1.10;;;19.60;29.50;;;;;;8344379;28;20030;-57
2021/01/15 02:02:53;;;;;;;;;;;19.60;29.50;;;;;;8347467;28;20088;-57
2021/01/15 02:06:54;;;;;;;1.75;1.65;;;19.60;29.50;;;;;;8365417;28;19929;-57
2021/01/15 02:11:18;;;;;;;2.00;1.17;;;19.60;29.60;;;;;;8356684;28;20044;-57
2021/01/15 02:15:28;;;;;;;1.35;1.15;;;19.60;29.60;;;;;;8357170;28;20044;-57
2021/01/15 02:19:37;;;;;;;1.50;1.40;;;19.60;29.60;;;;;;8354987;28;20029;-57
2021/01/15 02:23:43;;;;;;;1.50;1.40;;;19.60;29.60;;;;;;8358110;28;20075;-57
2021/01/15 02:27:52;;;;;;;1.38;1.27;;;19.60;29.60;;;;;;8366654;28;20053;-57
2021/01/15 02:32:10;;;;;;;1.38;1.20;;;19.50;29.70;;;;;;8367767;28;20037;-57
2021/01/15 02:36:26;;;;;;;1.27;0.90;;;19.50;29.70;;;;;;8341173;28;20395;-57
2021/01/15 02:40:33;;;;;;;1.75;1.30;;;19.50;29.70;;;;;;8327792;28;20486;-57
2021/01/15 02:44:38;;;;;;;1.48;1.20;;;19.50;29.70;;;;;;8349505;28;20405;-57
2021/01/15 02:48:42;;;;;;;1.38;1.25;;;19.50;29.70;;;;;;8397914;28;20039;-57
2021/01/15 02:52:43;;;;;;;1.27;1.17;;;19.50;29.70;;;;;;8366682;28;20039;-57
2021/01/15 02:56:43;;;;;;;1.45;1.35;;;19.50;29.80;;;;;;8361834;28;20037;-57
2021/01/15 03:00:44;;;;;;;1.50;1.17;;;19.50;29.80;;;;;;8335487;28;20061;-57
2021/01/15 03:05:14;;;;;;;4.70;1.40;;;19.50;29.80;;;;;;8366014;28;20056;-57
2021/01/15 03:09:16;;;;;;;1.45;1.35;;;19.50;29.80;;;;;;8332777;28;20045;-57
2021/01/15 03:13:17;;;;;;;1.27;1.17;;;19.40;29.80;;;;;;8348240;28;20401;-57
2021/01/15 03:17:23;;;;;;;1.83;1.40;;;19.40;29.70;;;;;;8375440;28;20036;-57
2021/01/15 03:21:25;;;;;;;1.45;1.35;;;19.40;29.80;;;;;;8394162;28;20105;-57
2021/01/15 03:25:26;;;;;;;1.52;1.40;;;19.40;29.80;;;;;;8396898;27;20045;-57
2021/01/15 03:29:26;;;;;;;1.93;1.30;;;19.40;29.80;;;;;;8393738;28;20060;-57
2021/01/15 03:33:27;;;;;;;1.70;1.50;;;19.40;29.80;;;;;;8373394;28;20501;-57
2021/01/15 03:37:27;;;;;;;1.40;1.30;;;19.40;29.80;;;;;;8368991;28;20061;-57
2021/01/15 03:41:28;;;;;;;1.47;1.20;;;19.30;29.70;;;;;;8393471;28;20036;-57
2021/01/15 03:45:28;;;;;;;1.47;1.37;;;19.40;29.80;;;;;;8397910;28;20057;-57
2021/01/15 03:49:29;;;;;;;1.50;1.20;;;19.40;29.80;;;;;;8391778;28;20028;-57
2021/01/15 03:53:30;;;;;;;1.40;1.30;;;19.40;29.80;;;;;;8391520;28;20499;-57
2021/01/15 03:57:30;;;;;;;1.30;1.13;;;19.30;29.80;;;;;;8392169;28;20036;-57
2021/01/15 04:01:32;;;;;;;1.37;1.13;;;19.30;29.80;;;;;;8395712;28;20040;-57
2021/01/15 04:05:33;;;;;;;2.72;1.60;;;19.30;29.80;;;;;;8392731;28;20052;-57
2021/01/15 04:09:34;;;;;;;1.65;1.52;;;19.30;29.80;;;;;;8392717;28;20056;-57
2021/01/15 04:13:34;;;;;;;1.63;1.37;;;19.30;29.90;;;;;;8383002;28;20383;-57
2021/01/15 04:17:35;;;;;;;1.40;1.30;;;19.30;29.90;;;;;;8363369;28;20066;-56
2021/01/15 04:21:36;;;;;;;1.35;1.17;;;19.30;30.00;;;;;;8357875;28;20033;-56
2021/01/15 04:25:37;;;;;;;1.53;1.43;;;19.30;29.90;;;;;;8381331;28;20513;-57
2021/01/15 04:29:37;;;;;;;1.95;1.27;;;19.40;29.90;;;;;;8374228;28;20070;-57
2021/01/15 04:33:38;;;;;;;1.97;1.37;;;19.40;29.90;;;;;;8354442;28;20403;-57
2021/01/15 04:37:38;;;;;;;1.40;1.30;;;19.50;29.90;;;;;;8338932;28;20140;-57
2021/01/15 04:41:41;;;;;;;1.13;0.93;;;19.50;29.90;;;;;;8358451;28;20064;-57
2021/01/15 04:45:42;;;;;;;1.50;1.40;;;19.50;29.80;;;;;;8356949;28;20449;-57
2021/01/15 04:49:45;;;;;;;1.37;1.27;;;19.60;29.90;;;;;;8357721;28;20111;-57
2021/01/15 04:54:00;;;;;;;1.10;1.00;;;19.60;29.80;;;;;;8362776;28;20044;-57
2021/01/15 04:58:00;;;;;;;1.30;1.20;;;19.70;29.80;;;;;;8356901;28;20048;-57
2021/01/15 05:02:07;;;;;;;2.43;1.27;;;19.70;29.80;;;;;;8346690;28;20048;-57
2021/01/15 05:06:08;;;;;;;2.35;1.30;;;19.70;29.90;;;;;;8324837;28;20053;-57
2021/01/15 05:10:12;;;;;;;1.63;1.38;;;19.70;29.90;;;;;;8323234;28;20094;-57
2021/01/15 05:14:15;;;;;;;1.65;1.40;;;19.70;29.80;;;;;;8329248;28;20030;-58
2021/01/15 05:18:18;;;;;;;1.80;1.42;;;19.70;29.90;;;;;;8324669;28;20045;-56
2021/01/15 05:22:18;;;;;;;1.40;1.30;;;19.70;29.90;;;;;;8371623;28;20098;-57
2021/01/15 05:26:21;;;;;;;2.63;1.40;;;19.70;29.90;;;;;;8390693;28;20477;-57
2021/01/15 05:30:23;;;;;;;1.90;1.27;;;19.70;29.90;;;;;;8371644;28;20041;-57
2021/01/15 05:34:26;;;;;;;1.10;1.00;;;19.80;29.90;;;;;;8380302;28;20045;-56
2021/01/15 05:38:26;;;;;;;1.25;1.15;;;19.80;29.90;;;;;;8334562;28;20038;-57
2021/01/15 05:42:27;;;;;;;1.37;1.27;;;19.80;29.90;;;;;;8324434;28;20116;-56
2021/01/15 05:46:27;;;;;;;1.13;1.07;;;19.80;30.00;;;;;;8357357;28;22604;-57
2021/01/15 05:50:39;;;;;;;1.20;1.10;;;19.80;30.00;;;;;;8394556;28;20413;-56
2021/01/15 05:54:39;;;;;;;1.63;1.13;;;19.80;30.00;;;;;;8388587;28;20489;-56
2021/01/15 05:59:00;;;;;;;1.23;1.13;;;19.90;30.00;;;;;;8380294;28;20044;-56
2021/01/15 06:03:06;;;;;;;1.10;1.00;;;19.80;29.90;;;;;;8352872;28;20045;-57
2021/01/15 06:07:06;;;;;;;1.38;1.05;;;19.80;30.00;;;;;;8353293;28;20299;-57
2021/01/15 06:11:21;;;;;;;1.10;1.00;;;19.80;29.90;;;;;;8347498;28;20029;-56
2021/01/15 06:15:21;;;;;;;2.55;1.15;;;19.90;29.90;;;;;;8389318;28;20040;-56
2021/01/15 06:19:22;;;;;;;1.20;1.03;;;19.90;29.90;;;;;;8370946;28;20501;-57
2021/01/15 06:23:23;;;;;;;0.90;0.80;;;19.90;30.00;;;;;;8344998;28;20025;-57
2021/01/15 06:27:32;;;;;;;1.30;0.90;;;19.90;29.90;;;;;;8366928;28;20049;-56
2021/01/15 06:31:51;;;;;;;1.33;1.02;;;19.90;29.90;;;;;;8361028;28;20132;-56
2021/01/15 06:35:52;;;;;;;1.38;1.08;;;19.90;29.80;;;;;;8362647;28;20029;-57
2021/01/15 06:40:11;;;;;;;1.07;0.97;;;20.00;30.00;;;;;;8360965;28;20420;-57
2021/01/15 06:44:14;;;;;;;1.05;0.98;;;20.00;30.00;;;;;;8356193;28;20041;-57
2021/01/15 06:48:40;;;;;;;1.05;0.85;;;19.90;29.90;;;;;;8366460;28;20501;-56
2021/01/15 06:52:51;;;;;;;1.10;1.00;;;20.00;29.90;;;;;;8332043;28;20502;-57
2021/01/15 06:57:13;;;;;;;1.05;0.93;;;20.00;29.90;;;;;;8361531;28;20029;-57
2021/01/15 07:01:25;;;;;;;1.08;0.90;;;20.00;29.80;;;;;;8346236;28;20041;-57
2021/01/15 07:05:28;;;;;;;1.25;1.15;;;20.00;29.90;;;;;;8362053;28;20068;-56
2021/01/15 07:09:31;;;;;;;1.17;1.05;;;20.00;30.00;;;;;;8361011;28;20033;-57
2021/01/15 07:13:35;;;;;;;1.35;0.90;;;20.00;29.90;;;;;;8364209;28;20113;-57
2021/01/15 07:17:38;;;;;;;1.00;0.90;;;20.00;30.00;;;;;;8361443;28;20520;-57
2021/01/15 07:22:02;;;;;;;2.53;0.93;;;20.00;29.90;;;;;;8359299;28;20119;-56
2021/01/15 07:26:05;;;;;;;0.82;0.82;;;20.00;29.90;;;;;;8360634;28;20048;-57
2021/01/15 07:30:14;;;;;;;1.60;1.25;;;20.00;29.90;;;;;;8344220;28;20030;-56
2021/01/15 07:34:21;;;;;;;1.13;1.02;;;20.00;29.90;;;;;;8329634;28;20044;-57
2021/01/15 07:38:21;;;;;;;1.52;1.10;;;20.00;29.90;;;;;;8327903;28;20084;-56
2021/01/15 07:42:42;;;;;;;1.60;1.20;;;20.00;29.90;;;;;;8327392;28;20080;-56
2021/01/15 07:46:47;;;;;;;1.33;0.70;;;20.10;30.00;;;;;;8326375;28;20397;-56
2021/01/15 07:50:49;;;;;;;1.55;1.05;;;20.00;29.90;;;;;;8331442;28;20037;-57
2021/01/15 07:54:49;;;;;;;1.05;0.95;;;20.10;29.90;;;;;;8352336;28;20033;-57
2021/01/15 07:58:50;;;;;;;1.33;1.03;;;20.00;29.90;;;;;;8360412;28;20029;-58
2021/01/15 08:02:59;;;;;;;1.30;1.00;;;20.00;29.90;;;;;;8360217;28;20064;-57
2021/01/15 08:07:15;;;;;;;1.10;0.95;;;20.10;29.80;;;;;;8357867;28;20053;-58
2021/01/15 08:11:15;;;;;;;1.60;0.80;;;20.10;29.80;;;;;;8363945;28;20486;-58
2021/01/15 08:15:32;;;;;;;1.30;1.17;;;20.10;29.80;;;;;;8359615;28;20119;-58
2021/01/15 08:19:36;;;;;;;1.20;1.10;;;20.10;29.80;;;;;;8357977;28;20033;-58
2021/01/15 08:23:36;;;;;;;1.10;1.00;;;20.10;29.80;;;;;;8353938;28;20501;-57
2021/01/15 08:27:38;;;;;;;1.30;0.97;;;20.00;29.80;;;;;;8382567;27;20044;-55
2021/01/15 08:31:39;;;;;;;1.20;1.10;;;20.00;29.70;;;;;;8387298;28;20037;-55
2021/01/15 08:35:39;;;;;;;1.23;0.90;;;20.10;29.80;;;;;;8375943;28;20039;-55
2021/01/15 08:39:48;;;;;;;1.13;1.00;;;20.00;29.70;;;;;;8381762;28;20044;-57
2021/01/15 08:43:48;;;;;;;1.20;1.10;;;20.00;29.80;;;;;;8391557;28;20024;-58
2021/01/15 08:47:49;;;;;;;1.10;1.00;;;20.00;29.80;;;;;;8395803;28;20041;-58
2021/01/15 08:51:52;;;;;;;1.17;1.07;;;20.00;29.80;;;;;;8389706;28;20545;-57
2021/01/15 08:55:55;;;;;;;0.65;0.63;;;20.10;29.80;;;;;;8391008;28;20267;-57
2021/01/15 09:00:06;;;;;;;1.08;0.90;;;20.10;29.80;;;;;;8391203;28;20055;-58
2021/01/15 09:04:10;;;;;;;0.90;0.77;;;20.00;29.80;;;;;;8385573;28;20049;-58
2021/01/15 09:08:15;;;;;;;0.93;0.80;;;20.10;29.80;;;;;;8375569;28;20040;-56
2021/01/15 09:12:20;;;;;;;0.95;0.88;;;20.10;29.80;;;;;;8391063;28;20028;-56
2021/01/15 09:16:22;;;;;;;1.92;0.95;;;20.10;29.80;;;;;;8389530;28;20024;-58
2021/01/15 09:20:23;;;;;;;1.52;0.80;;;20.10;29.80;;;;;;8375726;28;20033;-57
2021/01/15 09:24:24;;;;;;;1.27;0.73;;;20.10;29.80;;;;;;8362003;28;20036;-57
2021/01/15 09:28:24;;;;;;;1.33;1.00;;;20.10;29.80;;;;;;8362599;28;20052;-57
2021/01/15 09:32:24;;;;;;;1.10;1.00;;;20.10;29.80;;;;;;8369717;28;20041;-56
2021/01/15 09:36:26;;;;;;;1.40;0.87;;;20.10;29.80;;;;;;8368440;28;20397;-56
2021/01/15 09:40:27;;;;;;;1.02;0.90;;;20.10;29.80;;;;;;8366645;28;20033;-57
2021/01/15 09:44:28;;;;;;;0.97;0.83;;;20.10;29.80;;;;;;8372472;28;20405;-57
2021/01/15 09:48:29;;;;;;;;;;;20.10;29.80;;;;;;8368552;28;20040;-57
2021/01/15 09:52:31;;;;;;;0.83;0.80;;;20.10;29.70;;;;;;8334365;28;19913;-57
2021/01/15 09:56:42;;;;;;;0.70;0.70;;;20.10;29.80;;;;;;8335239;28;20026;-57
2021/01/15 10:00:42;;;;;;;1.77;1.20;;;20.10;29.80;;;;;;8363877;28;20029;-56
2021/01/15 10:04:43;;;;;;;0.97;0.90;;;20.10;29.80;;;;;;8398760;28;20056;-57
2021/01/15 10:08:45;;;;;;;1.50;1.00;;;20.10;29.80;;;;;;8401204;28;20119;-57
2021/01/15 10:12:45;;;;;;;1.20;0.82;;;20.10;29.70;;;;;;8399360;28;20123;-56
2021/01/15 10:16:49;;;;;;;1.63;0.90;;;20.10;29.80;;;;;;8389906;28;20033;-57
2021/01/15 10:20:50;;;;;;;1.02;0.80;;;20.10;29.70;;;;;;8372112;28;20033;-58
2021/01/15 10:24:50;;;;;;;1.53;0.97;;;20.10;29.80;;;;;;8365929;28;20043;-58
2021/01/15 10:28:56;;;;;;;1.40;0.97;;;20.20;29.80;;;;;;8367681;28;20036;-58
2021/01/15 10:32:56;;;;;;;1.08;0.95;;;20.20;29.70;;;;;;8367872;28;20029;-58
2021/01/15 10:36:57;;;;;;;1.17;1.00;;;20.10;29.70;;;;;;8370327;28;20029;-58
2021/01/15 10:41:01;;;;;;;1.00;0.80;;;20.20;29.70;;;;;;8379222;28;20044;-58
2021/01/15 10:45:01;;;;;;;1.15;0.90;;;20.20;29.70;;;;;;8379143;28;20056;-59
2021/01/15 10:49:06;;;;;;;1.20;0.90;;;20.20;29.70;;;;;;8366855;28;20101;-57
2021/01/15 10:53:06;;;;;;;1.92;1.00;;;20.20;29.60;;;;;;8361537;28;20029;-58
2021/01/15 10:57:07;;;;;;;1.00;0.70;;;20.20;29.60;;;;;;8387307;28;20115;-58
2021/01/15 11:01:08;;;;;;;1.13;0.90;;;20.10;29.50;;;;;;8389127;27;20116;-58
2021/01/15 11:05:09;;;;;;;1.17;0.73;;;20.10;29.50;;;;;;8361067;28;20409;-57
2021/01/15 11:09:12;;;;;;;1.00;0.90;;;20.10;29.50;;;;;;8361622;28;20041;-58
2021/01/15 11:13:13;;;;;;;0.80;0.75;;;20.10;29.50;;;;;;8394501;28;20032;-58
2021/01/15 11:17:14;;;;;;;0.80;0.73;;;20.10;29.50;;;;;;8395038;28;20415;-57
2021/01/15 11:21:23;;;;;;;1.17;0.90;;;20.10;29.50;;;;;;8393846;28;20036;-57
2021/01/15 11:25:23;;;;;;;1.02;0.85;;;20.10;29.40;;;;;;8355027;28;20042;-57
2021/01/15 11:29:24;;;;;;;0.90;0.90;;;20.10;29.50;;;;;;8331443;28;20478;-57
2021/01/15 11:33:24;;;;;;;1.20;0.97;;;20.10;29.50;;;;;;8330359;28;20025;-57
2021/01/15 11:37:25;;;;;;;1.27;1.00;;;20.20;29.50;;;;;;8350568;28;20033;-57
2021/01/15 11:41:26;;;;;;;1.63;0.90;;;20.20;29.50;;;;;;8326969;28;20171;-56
2021/01/15 11:45:26;;;;;;;1.33;1.00;;;20.20;29.50;;;;;;8327593;28;20045;-57
2021/01/15 11:49:27;;;;;;;1.60;0.80;;;20.20;29.50;;;;;;8330174;28;20116;-57
2021/01/15 11:53:33;;;;;;;1.90;0.87;;;20.20;29.50;;;;;;8342800;28;20048;-58
2021/01/15 11:57:33;;;;;;;1.13;0.90;;;20.20;29.50;;;;;;8335721;28;20029;-57
2021/01/15 12:01:34;;;;;;;1.27;0.90;;;20.20;29.50;;;;;;8325481;28;20029;-57
2021/01/15 12:05:42;;;;;;;1.23;0.93;;;20.20;29.50;;;;;;8331158;28;20048;-57
2021/01/15 12:09:42;;;;;;;1.08;0.90;;;20.20;29.50;;;;;;8349872;28;20033;-56
2021/01/15 12:13:43;;;;;;;1.17;0.77;;;20.20;29.50;;;;;;8326758;28;20512;-57
2021/01/15 12:17:43;;;;;;;1.73;1.00;;;20.20;29.50;;;;;;8326511;28;20038;-57
2021/01/15 12:21:45;;;;;;;0.73;0.73;;;20.20;29.50;;;;;;8325066;28;20091;-57
2021/01/15 12:25:46;;;;;;;1.30;1.00;;;20.20;29.50;;;;;;8330618;28;20045;-57
2021/01/15 12:29:47;;;;;;;1.23;1.10;;;20.20;29.50;;;;;;8326144;28;20041;-57
2021/01/15 12:33:51;;;;;;;2.00;0.80;;;20.30;29.60;;;;;;8324278;28;20034;-57
2021/01/15 12:37:51;;;;;;;1.10;1.00;;;20.20;29.40;;;;;;8343230;28;20033;-57
2021/01/15 12:41:52;;;;;;;1.10;1.00;;;20.30;29.60;;;;;;8396149;28;20385;-57
2021/01/15 12:45:52;;;;;;;0.83;0.80;;;20.30;29.50;;;;;;8387252;28;20053;-57
2021/01/15 12:49:53;;;;;;;1.07;0.97;;;20.30;29.50;;;;;;8358754;28;20616;-57
2021/01/15 12:53:53;;;;;;;1.40;1.07;;;20.30;29.50;;;;;;8358011;28;20048;-57
2021/01/15 12:58:00;;;;;;;1.50;1.20;;;20.30;29.50;;;;;;8359953;28;20089;-57
2021/01/15 13:02:01;;;;;;;2.00;0.82;;;20.30;29.50;;;;;;8329613;28;20565;-57
2021/01/15 13:06:01;;;;;;;1.50;1.10;;;20.30;29.60;;;;;;8350177;28;20045;-56
2021/01/15 13:10:04;;;;;;;2.00;1.10;;;20.30;29.70;;;;;;8326952;28;20430;-56
2021/01/15 13:14:04;;;;;;;1.55;1.00;;;20.30;29.60;;;;;;8324783;28;20539;-56
2021/01/15 13:18:05;;;;;;;1.57;1.00;;;20.30;30.00;;;;;;8329225;28;20033;-56
2021/01/15 13:22:06;;;;;;;2.25;1.70;;;20.30;29.50;;;;;;8381553;28;20374;-56
2021/01/15 13:26:06;;;;;;;1.40;0.90;;;20.30;29.60;;;;;;8390437;28;20045;-56
2021/01/15 13:30:08;;;;;;;1.83;1.10;;;20.30;29.50;;;;;;8390392;28;20062;-56
2021/01/15 13:34:08;;;;;;;;;;;20.30;29.50;;;;;;8393942;28;20389;-57
2021/01/15 13:38:09;;;;;;;1.60;1.20;;;20.30;29.50;;;;;;8390097;28;19912;-56
2021/01/15 13:42:10;;;;;;;1.20;1.00;;;20.30;29.60;;;;;;8390292;28;20464;-58
2021/01/15 13:46:10;;;;;;;2.10;1.20;;;20.30;29.50;;;;;;8388506;28;20090;-56
2021/01/15 13:50:19;;;;;;;1.07;0.97;;;20.40;29.50;;;;;;8390276;28;20486;-56
2021/01/15 13:54:19;;;;;;;1.35;0.98;;;20.40;29.90;;;;;;8394610;28;20478;-58
2021/01/15 13:58:21;;;;;;;1.87;1.10;;;20.40;29.50;;;;;;8388690;28;20599;-58
2021/01/15 14:02:21;;;;;;;1.90;1.00;;;20.40;29.50;;;;;;8390943;28;20044;-57
2021/01/15 14:06:22;;;;;;;2.13;1.10;;;20.40;29.50;;;;;;8390231;28;20056;-58
2021/01/15 14:10:22;;;;;;;1.50;0.80;;;20.40;29.50;;;;;;8392734;28;20029;-58
2021/01/15 14:14:23;;;;;;;1.53;1.10;;;20.30;29.50;;;;;;8390084;28;20456;-58
2021/01/15 14:18:24;;;;;;;1.97;1.17;;;20.40;29.50;;;;;;8389686;28;20041;-58
2021/01/15 14:22:24;;;;;;;1.95;0.95;;;20.40;29.50;;;;;;8394085;28;20030;-56
2021/01/15 14:26:25;;;;;;;1.43;0.87;;;20.40;29.50;;;;;;8379769;28;20045;-58
2021/01/15 14:30:25;;;;;;;1.37;1.10;;;20.40;29.50;;;;;;8367038;28;20457;-55
2021/01/15 14:34:26;;;;;;;1.57;1.10;;;20.40;29.50;;;;;;8368169;28;20029;-58
2021/01/15 14:38:26;;;;;;;1.50;1.10;;;20.40;29.40;;;;;;8362735;28;20112;-55
2021/01/15 14:42:27;;;;;;;2.43;1.10;;;20.40;29.40;;;;;;8367383;28;20029;-56
2021/01/15 14:46:27;;;;;;;2.07;1.30;;;20.40;29.40;;;;;;8397969;28;20041;-55
2021/01/15 14:50:28;;;;;;;3.13;1.23;;;20.40;29.40;;;;;;8379622;28;20039;-57
2021/01/15 14:54:29;;;;;;;1.07;0.90;;;20.40;29.30;;;;;;8343253;28;20064;-57
2021/01/15 14:58:29;;;;;;;1.85;1.20;;;20.40;29.40;;;;;;8327428;28;20029;-57
2021/01/15 15:02:30;;;;;;;1.47;1.20;;;20.40;29.40;;;;;;8333349;28;20079;-56
2021/01/15 15:06:30;;;;;;;0.87;0.87;;;20.40;29.40;;;;;;8328482;28;20527;-57
2021/01/15 15:10:31;;;;;;;2.37;1.07;;;20.40;29.40;;;;;;8334564;28;20030;-57
2021/01/15 15:14:31;;;;;;;1.30;1.07;;;20.40;29.30;;;;;;8361297;28;20037;-57
2021/01/15 15:18:32;;;;;;;1.67;1.33;;;20.40;29.40;;;;;;8336973;28;20364;-56
2021/01/15 15:22:32;;;;;;;1.87;1.20;;;20.40;29.30;;;;;;8330743;28;20026;-56
2021/01/15 15:26:33;;;;;;;2.27;1.37;;;20.40;29.40;;;;;;8328108;28;20543;-56
2021/01/15 15:30:34;;;;;;;1.95;1.08;;;20.40;29.40;;;;;;8327616;28;20084;-56
2021/01/15 15:34:35;;;;;;;2.00;1.20;;;20.30;29.30;;;;;;8365560;28;20036;-57
2021/01/15 15:38:36;;;;;;;;;;;20.40;29.40;;;;;;8398616;28;20090;-58
2021/01/15 15:42:36;;;;;;;1.67;1.10;;;20.40;29.30;;;;;;8366867;28;19912;-57
2021/01/15 15:46:37;;;;;;;2.10;1.27;;;20.40;29.40;;;;;;8360484;28;20041;-57
2021/01/15 15:50:37;;;;;;;3.47;1.20;;;20.40;29.40;;;;;;8376943;28;20075;-56
2021/01/15 15:54:38;;;;;;;1.57;1.27;;;20.40;29.50;;;;;;8394884;28;20048;-57
2021/01/15 15:58:39;;;;;;;1.70;1.37;;;20.40;29.40;;;;;;8394386;28;20516;-58
2021/01/15 16:02:40;;;;;;;1.40;1.30;;;20.40;29.40;;;;;;8392764;28;20127;-57
2021/01/15 16:06:43;;;;;;;2.00;1.10;;;20.40;29.30;;;;;;8378141;28;20049;-57
2021/01/15 16:10:45;;;;;;;1.75;1.10;;;20.40;29.40;;;;;;8359515;28;20064;-58
2021/01/15 16:14:45;;;;;;;2.55;1.15;;;20.40;29.40;;;;;;8345654;28;20042;-58
2021/01/15 16:18:46;;;;;;;1.37;1.07;;;20.40;29.40;;;;;;8324800;28;20514;-57
2021/01/15 16:22:56;;;;;;;2.20;1.35;;;20.40;29.40;;;;;;8336140;28;20036;-57
2021/01/15 16:26:57;;;;;;;1.63;1.30;;;20.40;29.40;;;;;;8339345;28;20056;-58
2021/01/15 16:30:57;;;;;;;2.17;1.67;;;20.40;29.40;;;;;;8328785;28;20037;-57
2021/01/15 16:34:59;;;;;;;2.80;1.40;;;20.30;29.30;;;;;;8326290;28;20065;-57
2021/01/15 16:38:59;;;;;;;2.95;1.33;;;20.30;29.30;;;;;;8326090;28;20040;-57
2021/01/15 16:43:00;;;;;;;1.70;1.50;;;20.30;29.30;;;;;;8324260;28;20038;-57
2021/01/15 16:47:01;;;;;;;1.50;1.40;;;20.30;29.30;;;;;;8326037;28;20061;-57
2021/01/15 16:51:01;;;;;;;2.20;1.67;;;20.30;29.30;;;;;;8329853;28;20034;-57
2021/01/15 16:55:05;;;;;;;1.90;1.40;;;20.30;29.30;;;;;;8323727;28;20045;-57
2021/01/15 16:59:06;;;;;;;1.75;1.27;;;20.30;29.30;;;;;;8337655;28;20037;-57
2021/01/15 17:03:07;;;;;;;1.80;1.07;;;20.30;29.30;;;;;;8357985;28;20033;-57
2021/01/15 17:07:08;;;;;;;3.50;1.80;;;20.30;28.90;;;;;;8313782;28;20037;-57
2021/01/15 17:11:09;;;;;;;2.45;1.83;;;20.20;29.30;;;;;;8337506;28;20565;-58
2021/01/15 17:15:10;;;;;;;4.23;1.97;;;20.30;29.40;;;;;;8319367;28;20033;-57
2021/01/15 17:19:11;;;;;;;3.77;1.50;;;20.30;29.50;;;;;;8322618;28;20717;-58
2021/01/15 17:23:11;;;;;;;2.72;1.60;;;20.30;29.60;;;;;;8337800;28;20532;-57
2021/01/15 17:27:12;;;;;;;3.50;1.70;;;20.40;29.70;;;;;;8299621;28;20046;-56
2021/01/15 17:31:13;;;;;;;2.50;1.90;;;20.30;30.10;;;;;;8370324;28;20031;-57
2021/01/15 17:35:13;;;;;;;2.93;1.90;;;20.30;29.60;;;;;;8390479;28;20028;-56
2021/01/15 17:39:14;;;;;;;7.90;2.13;;;20.30;29.50;;;;;;8390692;28;20024;-56
2021/01/15 17:43:15;;;;;;;3.10;2.00;;;20.30;29.40;;;;;;8393791;28;20509;-56
2021/01/15 17:47:15;;;;;;;3.67;1.97;;;20.30;29.40;;;;;;8363296;28;20056;-56
2021/01/15 17:51:16;;;;;;;4.33;2.20;;;20.20;29.30;;;;;;8357458;28;20037;-57
2021/01/15 17:55:16;;;;;;;2.97;2.17;;;20.20;29.40;;;;;;8352873;28;20509;-57
2021/01/15 17:59:17;;;;;;;2.57;1.83;;;20.10;29.20;;;;;;8335625;28;20033;-57
2021/01/15 18:03:19;;;;;;;3.00;2.13;;;20.10;29.30;;;;;;8362939;28;20139;-57
2021/01/15 18:07:19;;;;;;;2.85;2.05;;;20.00;29.30;;;;;;8362117;28;20553;-56
2021/01/15 18:11:20;;;;;;;4.33;2.40;;;19.90;29.20;;;;;;8363990;28;20044;-57
2021/01/15 18:15:20;;;;;;;4.10;2.50;;;19.90;29.20;;;;;;8363250;28;20082;-57
2021/01/15 18:19:21;;;;;;;5.17;2.50;;;19.80;29.10;;;;;;8366816;28;20037;-56
2021/01/15 18:23:22;;;;;;;3.97;2.40;;;19.80;29.30;;;;;;8363320;28;20037;-56
2021/01/15 18:27:22;;;;;;;5.25;2.97;;;19.80;29.20;;;;;;8362875;28;20052;-57
2021/01/15 18:31:23;;;;;;;5.87;2.27;;;19.80;29.30;;;;;;8361049;28;20359;-57
2021/01/15 18:35:28;;;;;;;3.35;2.47;;;19.70;29.30;;;;;;8367588;28;20025;-57
2021/01/15 18:39:29;;;;;;;2.60;1.85;;;19.70;29.20;;;;;;8363325;28;20520;-57
2021/01/15 18:43:29;;;;;;;3.00;2.23;;;19.70;29.40;;;;;;8346228;28;20042;-57
2021/01/15 18:47:30;;;;;;;4.10;2.50;;;19.60;29.30;;;;;;8323148;28;20494;-57
2021/01/15 18:51:35;;;;;;;3.23;2.20;;;19.60;29.30;;;;;;8341003;28;20125;-57
2021/01/15 18:55:35;;;;;;;3.35;2.72;;;19.60;29.30;;;;;;8398623;28;20036;-57
2021/01/15 18:59:35;;;;;;;4.53;2.57;;;19.60;29.30;;;;;;8395496;28;20405;-57
2021/01/15 19:03:36;;;;;;;3.30;2.47;;;19.50;29.20;;;;;;8394103;28;20040;-53
2021/01/15 19:07:37;;;;;;;3.87;2.50;;;19.50;29.20;;;;;;8393801;28;20040;-57
2021/01/15 19:11:40;;;;;;;3.03;2.47;;;19.50;29.20;;;;;;8399602;28;20037;-57
2021/01/15 19:15:41;;;;;;;4.95;2.85;;;19.40;29.20;;;;;;8393609;28;20398;-57
2021/01/15 19:19:41;;;;;;;2.87;2.20;;;19.40;29.20;;;;;;8377256;28;20032;-57
2021/01/15 19:23:42;;;;;;;2.67;2.10;;;19.40;29.20;;;;;;8352804;28;20140;-57
2021/01/15 19:27:44;;;;;;;3.50;2.33;;;19.40;29.20;;;;;;8390285;28;20083;-57
2021/01/15 19:31:50;;;;;;;3.53;2.38;;;19.40;29.20;;;;;;8394310;28;20081;-57
2021/01/15 19:35:52;;;;;;;3.50;2.60;;;19.40;29.30;;;;;;8394726;28;20043;-57
2021/01/15 19:39:52;;;;;;;3.05;2.35;;;19.30;29.40;;;;;;8392604;28;20516;-57
2021/01/15 19:43:53;;;;;;;4.57;3.10;;;19.30;29.60;;;;;;8394679;28;20037;-57
2021/01/15 19:47:53;;;;;;;3.00;2.50;;;19.40;29.70;;;;;;8398259;28;20378;-57
2021/01/15 19:51:54;;;;;;;2.73;2.17;;;19.40;29.50;;;;;;8390957;28;20039;-57
2021/01/15 19:55:54;;;;;;;3.70;2.80;;;19.30;29.50;;;;;;8393665;28;20028;-57
2021/01/15 19:59:55;;;;;;;4.30;2.93;;;19.40;29.40;;;;;;8374548;28;20394;-57
2021/01/15 20:03:55;;;;;;;4.93;2.53;;;19.40;29.40;;;;;;8364112;28;20048;-57
2021/01/15 20:07:57;;;;;;;3.20;2.50;;;19.40;29.40;;;;;;8330445;28;20057;-57
2021/01/15 20:11:59;;;;;;;;;;;19.40;29.40;;;;;;8347171;28;20521;-58
2021/01/15 20:15:59;;;;;;;3.05;2.20;;;19.40;29.50;;;;;;8386945;27;20369;-57
2021/01/15 20:20:00;;;;;;;3.47;2.60;;;19.40;29.50;;;;;;8392541;28;20037;-57
2021/01/15 20:24:04;;;;;;;3.40;2.60;;;19.50;29.70;;;;;;8397313;28;20442;-57
2021/01/15 20:28:08;;;;;;;3.17;2.67;;;19.50;29.60;;;;;;8366280;28;20044;-57
2021/01/15 20:32:08;;;;;;;3.78;2.78;;;19.50;29.60;;;;;;8377574;28;20037;-57
2021/01/15 20:36:09;;;;;;;3.93;2.73;;;19.50;29.60;;;;;;8365201;28;20507;-57
2021/01/15 20:40:13;;;;;;;4.63;2.97;;;19.50;29.60;;;;;;8390451;28;20087;-57
2021/01/15 20:44:13;;;;;;;4.10;2.80;;;19.50;29.40;;;;;;8330983;28;20076;-57
2021/01/15 20:48:14;;;;;;;5.20;3.10;;;19.50;29.50;;;;;;8348082;28;20513;-57
2021/01/15 20:52:15;;;;;;;4.60;3.17;;;19.50;29.40;;;;;;8357772;28;20048;-57
2021/01/15 20:56:15;;;;;;;4.15;3.08;;;19.40;29.30;;;;;;8363244;28;20082;-57
2021/01/15 21:00:17;;;;;;;3.93;3.00;;;19.40;29.30;;;;;;8392299;28;20440;-58
2021/01/15 21:04:17;;;;;;;7.75;3.28;;;19.40;29.30;;;;;;8367880;28;20044;-57